createdAt,value
2022-10-02T00:02:55.715Z,100256.69
2022-10-02T00:06:03.284Z,100256.75
2022-10-02T00:09:07.922Z,100251.03
2022-10-02T00:12:18.474Z,100249.34
2022-10-02T00:15:23.657Z,100256.72
2022-10-02T00:18:30.341Z,100271.09
2022-10-02T00:21:40.241Z,100265.41
2022-10-02T00:24:52.003Z,100278.88
2022-10-02T00:28:12.962Z,100286.97
2022-10-02T00:31:27.681Z,100282.53
2022-10-02T00:34:33.102Z,100282.25
2022-10-02T00:37:35.613Z,100293.78
2022-10-02T00:40:40.644Z,100294.44
2022-10-02T00:43:43.146Z,100299.00
2022-10-02T00:46:50.120Z,100297.25
2022-10-02T00:49:58.600Z,100306.78
2022-10-02T00:53:13.214Z,100323.69
2022-10-02T00:56:15.815Z,100322.25
2022-10-02T00:59:27.289Z,100335.41
2022-10-02T01:02:43.563Z,100333.03
2022-10-02T01:05:46.036Z,100334.47
2022-10-02T01:08:48.536Z,100336.13
2022-10-02T01:11:51.352Z,100345.75
2022-10-02T01:14:53.886Z,100344.03
2022-10-02T01:17:56.733Z,100330.03
2022-10-02T01:21:02.212Z,100336.22
2022-10-02T01:24:04.602Z,100338.41
2022-10-02T01:27:07.196Z,100327.91
2022-10-02T01:30:11.530Z,100333.19
2022-10-02T01:33:14.785Z,100337.72
2022-10-02T01:36:17.212Z,100342.81
2022-10-02T01:39:19.721Z,100351.53
2022-10-02T01:42:21.983Z,100359.25
2022-10-02T01:45:32.986Z,100361.06
2022-10-02T01:48:54.172Z,100365.41
2022-10-02T01:52:21.081Z,100368.38
2022-10-02T01:55:35.577Z,100375.44
2022-10-02T01:59:16.511Z,100377.88
2022-10-02T02:02:33.633Z,100385.34
2022-10-02T02:05:45.287Z,100383.16
2022-10-02T02:08:58.513Z,100386.72
2022-10-02T02:12:15.196Z,100398.38
2022-10-02T02:15:24.444Z,100392.16
2022-10-02T02:18:27.071Z,100407.94
2022-10-02T02:21:31.162Z,100402.97
2022-10-02T02:24:41.873Z,100404.88
2022-10-02T02:27:46.724Z,100406.91
2022-10-02T02:30:50.676Z,100404.25
2022-10-02T02:33:59.450Z,100401.19
2022-10-02T02:37:05.043Z,100401.28
2022-10-02T02:40:10.315Z,100404.88
2022-10-02T02:43:22.566Z,100408.47
2022-10-02T02:46:28.663Z,100424.13
2022-10-02T02:49:36.752Z,100425.06
2022-10-02T02:52:45.540Z,100425.50
2022-10-02T02:55:52.090Z,100423.16
2022-10-02T02:58:58.950Z,100420.78
2022-10-02T03:02:01.808Z,100428.50
2022-10-02T03:05:10.551Z,100434.66
2022-10-02T03:08:19.143Z,100439.31
2022-10-02T03:11:30.584Z,100452.59
2022-10-02T03:14:45.717Z,100450.91
2022-10-02T03:17:53.742Z,100454.06
2022-10-02T03:21:06.535Z,100462.41
2022-10-02T03:24:08.804Z,100458.66
2022-10-02T03:27:14.466Z,100463.72
2022-10-02T03:30:21.932Z,100467.03
2022-10-02T03:33:25.664Z,100464.41
2022-10-02T03:36:28.034Z,100469.53
2022-10-02T03:39:30.544Z,100480.75
2022-10-02T03:42:34.738Z,100477.16
2022-10-02T03:45:50.929Z,100476.12
2022-10-02T03:48:56.498Z,100481.84
2022-10-02T03:51:59.191Z,100477.50
2022-10-02T03:55:02.759Z,100484.22
2022-10-02T03:58:15.975Z,100488.81
2022-10-02T04:01:18.353Z,100486.88
2022-10-02T04:04:30.417Z,100489.62
2022-10-02T04:07:35.773Z,100488.72
2022-10-02T04:10:44.876Z,100493.72
2022-10-02T04:13:48.712Z,100494.41
2022-10-02T04:16:52.087Z,100497.69
2022-10-02T04:19:59.396Z,100505.16
2022-10-02T04:23:22.235Z,100502.66
2022-10-02T04:26:29.716Z,100501.75
2022-10-02T04:29:36.549Z,100504.69
2022-10-02T04:32:38.917Z,100511.09
2022-10-02T04:36:07.419Z,100522.91
2022-10-02T04:39:19.236Z,100530.47
2022-10-02T04:42:26.365Z,100535.84
2022-10-02T04:45:33.294Z,100543.66
2022-10-02T04:48:38.666Z,100538.37
2022-10-02T04:51:59.994Z,100541.75
2022-10-02T04:55:15.895Z,100550.75
2022-10-02T04:58:37.918Z,100545.69
2022-10-02T05:01:56.817Z,100549.84
2022-10-02T05:05:24.207Z,100560.19
2022-10-02T05:08:26.840Z,100565.63
2022-10-02T05:11:47.419Z,100560.22
2022-10-02T05:15:08.699Z,100563.63
2022-10-02T05:18:20.596Z,100572.28
2022-10-02T05:21:34.915Z,100577.75
2022-10-02T05:24:40.123Z,100577.53
2022-10-02T05:28:08.464Z,100580.31
2022-10-02T05:31:36.602Z,100575.06
2022-10-02T05:34:57.582Z,100579.87
2022-10-02T05:38:21.440Z,100573.88
2022-10-02T05:41:31.449Z,100571.47
2022-10-02T05:44:39.266Z,100577.03
2022-10-02T05:47:46.324Z,100590.41
2022-10-02T05:50:52.216Z,100588.84
2022-10-02T05:54:01.216Z,100585.03
2022-10-02T05:57:15.551Z,100600.41
2022-10-02T06:00:24.225Z,100596.22
2022-10-02T06:03:45.665Z,100603.34
2022-10-02T06:06:51.617Z,100610.50
2022-10-02T06:09:54.175Z,100623.19
2022-10-02T06:13:13.168Z,100635.81
2022-10-02T06:16:20.297Z,100627.59
2022-10-02T06:19:27.159Z,100635.06
2022-10-02T06:22:33.131Z,100631.34
2022-10-02T06:25:41.924Z,100625.19
2022-10-02T06:28:51.224Z,100628.16
2022-10-02T06:32:05.084Z,100634.81
2022-10-02T06:35:15.737Z,100632.41
2022-10-02T06:38:36.386Z,100628.75
2022-10-02T06:41:57.912Z,100635.84
2022-10-02T06:45:03.770Z,100644.56
2022-10-02T06:48:09.517Z,100651.91
2022-10-02T06:51:21.149Z,100654.81
2022-10-02T06:54:23.903Z,100670.81
2022-10-02T06:57:34.645Z,100670.75
2022-10-02T07:00:45.857Z,100687.38
2022-10-02T07:04:04.634Z,100683.31
2022-10-02T07:07:16.688Z,100685.06
2022-10-02T07:10:22.956Z,100690.25
2022-10-02T07:13:26.010Z,100693.47
2022-10-02T07:16:54.881Z,100699.69
2022-10-02T07:19:57.469Z,100690.78
2022-10-02T07:22:59.803Z,100707.13
2022-10-02T07:26:21.951Z,100703.53
2022-10-02T07:29:43.132Z,100704.22
2022-10-02T07:32:48.565Z,100702.75
2022-10-02T07:35:59.678Z,100720.69
2022-10-02T07:39:02.246Z,100727.75
2022-10-02T07:42:10.756Z,100729.19
2022-10-02T07:45:22.361Z,100727.47
2022-10-02T07:48:40.368Z,100728.63
2022-10-02T07:51:59.056Z,100731.00
2022-10-02T07:55:01.421Z,100732.34
2022-10-02T07:58:03.955Z,100733.62
2022-10-02T08:01:11.218Z,100728.19
2022-10-02T08:04:17.455Z,100717.25
2022-10-02T08:07:20.027Z,100723.41
2022-10-02T08:10:25.763Z,100733.75
2022-10-02T08:13:31.404Z,100733.09
2022-10-02T08:16:39.114Z,100747.69
2022-10-02T08:19:45.398Z,100740.66
2022-10-02T08:22:50.910Z,100739.00
2022-10-02T08:25:56.079Z,100742.47
2022-10-02T08:29:05.555Z,100727.81
2022-10-02T08:32:11.956Z,100740.94
2022-10-02T08:35:19.103Z,100745.00
2022-10-02T08:38:40.427Z,100747.09
2022-10-02T08:42:04.251Z,100735.53
2022-10-02T08:45:12.586Z,100751.50
2022-10-02T08:48:34.162Z,100746.38
2022-10-02T08:51:48.689Z,100754.12
2022-10-02T08:55:09.963Z,100755.28
2022-10-02T08:58:38.860Z,100758.81
2022-10-02T09:01:41.465Z,100752.22
2022-10-02T09:05:19.412Z,100769.97
2022-10-02T09:08:26.286Z,100755.37
2022-10-02T09:11:28.528Z,100759.88
2022-10-02T09:14:43.643Z,100754.00
2022-10-02T09:17:48.196Z,100746.38
2022-10-02T09:20:50.905Z,100755.25
2022-10-02T09:23:55.162Z,100760.97
2022-10-02T09:26:57.772Z,100763.75
2022-10-02T09:30:19.234Z,100763.78
2022-10-02T09:33:21.741Z,100761.94
2022-10-02T09:36:24.835Z,100749.09
2022-10-02T09:39:36.669Z,100751.16
2022-10-02T09:42:55.063Z,100748.25
2022-10-02T09:46:22.197Z,100734.53
2022-10-02T09:49:32.052Z,100741.87
2022-10-02T09:52:59.644Z,100733.97
2022-10-02T09:56:11.058Z,100738.09
2022-10-02T09:59:34.767Z,100738.06
2022-10-02T10:02:46.638Z,100747.47
2022-10-02T10:06:04.569Z,100741.44
2022-10-02T10:09:25.898Z,100741.41
2022-10-02T10:12:37.523Z,100746.06
2022-10-02T10:15:40.661Z,100733.03
2022-10-02T10:19:03.336Z,100727.19
2022-10-02T10:22:27.169Z,100733.00
2022-10-02T10:25:39.035Z,100726.94
2022-10-02T10:29:04.810Z,100743.38
2022-10-02T10:32:26.436Z,100729.91
2022-10-02T10:35:28.775Z,100726.69
2022-10-02T10:38:34.070Z,100720.59
2022-10-02T10:41:39.758Z,100717.97
2022-10-02T10:44:59.625Z,100715.47
2022-10-02T10:48:05.121Z,100717.94
2022-10-02T10:51:14.304Z,100710.72
2022-10-02T10:54:21.451Z,100708.66
2022-10-02T10:57:39.125Z,100712.34
2022-10-02T11:00:58.618Z,100707.25
2022-10-02T11:04:13.338Z,100707.78
2022-10-02T11:07:24.949Z,100717.28
2022-10-02T11:10:44.170Z,100707.16
2022-10-02T11:14:08.607Z,100702.91
2022-10-02T11:17:17.297Z,100705.25
2022-10-02T11:20:38.418Z,100721.91
2022-10-02T11:23:59.483Z,100727.59
2022-10-02T11:27:20.930Z,100712.09
2022-10-02T11:30:25.282Z,100717.16
2022-10-02T11:33:30.954Z,100702.94
2022-10-02T11:36:42.595Z,100699.31
2022-10-02T11:39:47.939Z,100694.81
2022-10-02T11:42:56.764Z,100704.22
2022-10-02T11:46:21.582Z,100697.47
2022-10-02T11:49:43.179Z,100701.25
2022-10-02T11:52:48.244Z,100699.16
2022-10-02T11:55:53.884Z,100681.56
2022-10-02T11:58:56.114Z,100669.78
2022-10-02T12:02:17.567Z,100669.78
2022-10-02T12:05:30.641Z,100668.13
2022-10-02T12:08:34.401Z,100662.47
2022-10-02T12:11:44.143Z,100683.19
2022-10-02T12:14:49.457Z,100673.50
2022-10-02T12:18:11.168Z,100670.38
2022-10-02T12:21:41.392Z,100676.38
2022-10-02T12:25:02.792Z,100669.50
2022-10-02T12:28:17.373Z,100658.72
2022-10-02T12:31:26.510Z,100659.53
2022-10-02T12:34:43.870Z,100654.97
2022-10-02T12:37:49.510Z,100647.06
2022-10-02T12:41:10.482Z,100652.41
2022-10-02T12:44:24.672Z,100636.69
2022-10-02T12:47:29.067Z,100642.72
2022-10-02T12:50:41.433Z,100627.31
2022-10-02T12:54:04.643Z,100631.25
2022-10-02T12:57:07.371Z,100627.37
2022-10-02T13:00:20.633Z,100632.72
2022-10-02T13:03:42.162Z,100632.12
2022-10-02T13:06:53.825Z,100640.75
2022-10-02T13:10:02.322Z,100641.56
2022-10-02T13:13:43.314Z,100623.25
2022-10-02T13:16:49.024Z,100614.34
2022-10-02T13:20:14.693Z,100610.25
2022-10-02T13:23:32.056Z,100606.50
2022-10-02T13:27:18.535Z,100608.53
2022-10-02T13:30:23.094Z,100605.88
2022-10-02T13:33:42.693Z,100604.94
2022-10-02T13:36:45.447Z,100599.28
2022-10-02T13:39:53.841Z,100602.22
2022-10-02T13:43:15.275Z,100588.69
2022-10-02T13:46:32.954Z,100603.06
2022-10-02T13:49:56.245Z,100598.78
2022-10-02T13:53:16.972Z,100590.53
2022-10-02T13:56:28.839Z,100585.25
2022-10-02T13:59:31.189Z,100586.28
2022-10-02T14:02:34.030Z,100573.53
2022-10-02T14:05:42.560Z,100574.69
2022-10-02T14:08:44.817Z,100578.28
2022-10-02T14:11:56.416Z,100567.84
2022-10-02T14:14:58.647Z,100566.47
2022-10-02T14:18:16.364Z,100572.56
2022-10-02T14:21:21.621Z,100574.28
2022-10-02T14:25:00.745Z,100573.66
2022-10-02T14:28:06.052Z,100571.84
2022-10-02T14:31:28.016Z,100568.03
2022-10-02T14:34:49.320Z,100567.25
2022-10-02T14:38:04.368Z,100562.16
2022-10-02T14:41:19.651Z,100564.94
2022-10-02T14:44:29.079Z,100554.94
2022-10-02T14:47:34.365Z,100562.78
2022-10-02T14:50:39.933Z,100555.16
2022-10-02T14:53:52.548Z,100540.84
2022-10-02T14:57:01.396Z,100538.69
2022-10-02T15:00:24.701Z,100537.50
2022-10-02T15:03:37.404Z,100518.53
2022-10-02T15:06:42.647Z,100507.03
2022-10-02T15:09:54.598Z,100509.22
2022-10-02T15:13:09.848Z,100510.06
2022-10-02T15:16:38.052Z,100506.59
2022-10-02T15:19:49.723Z,100508.84
2022-10-02T15:22:57.341Z,100503.44
2022-10-02T15:26:19.922Z,100511.59
2022-10-02T15:29:30.567Z,100516.84
2022-10-02T15:32:39.681Z,100499.13
2022-10-02T15:36:20.854Z,100509.62
2022-10-02T15:39:28.932Z,100502.50
2022-10-02T15:42:52.379Z,100506.72
2022-10-02T15:46:27.761Z,100500.69
2022-10-02T15:49:33.907Z,100501.53
2022-10-02T15:52:42.413Z,100494.81
2022-10-02T15:55:52.651Z,100494.66
2022-10-02T15:58:59.612Z,100487.97
2022-10-02T16:02:11.095Z,100488.53
2022-10-02T16:05:20.785Z,100487.84
2022-10-02T16:08:26.097Z,100485.22
2022-10-02T16:11:34.613Z,100487.47
2022-10-02T16:14:58.841Z,100485.16
2022-10-02T16:18:04.124Z,100495.44
2022-10-02T16:21:26.332Z,100483.47
2022-10-02T16:24:31.810Z,100482.75
2022-10-02T16:27:51.460Z,100482.00
2022-10-02T16:31:01.892Z,100481.37
2022-10-02T16:34:19.270Z,100479.84
2022-10-02T16:37:21.822Z,100493.94
2022-10-02T16:40:24.898Z,100494.00
2022-10-02T16:43:39.532Z,100499.31
2022-10-02T16:46:51.933Z,100495.00
2022-10-02T16:50:00.595Z,100489.62
2022-10-02T16:53:05.488Z,100483.06
2022-10-02T16:56:15.091Z,100483.22
2022-10-02T16:59:22.223Z,100476.12
2022-10-02T17:02:47.156Z,100478.94
2022-10-02T17:05:52.361Z,100473.06
2022-10-02T17:09:00.998Z,100465.34
2022-10-02T17:12:09.596Z,100467.28
2022-10-02T17:15:15.291Z,100465.03
2022-10-02T17:18:26.598Z,100471.94
2022-10-02T17:21:39.191Z,100483.28
2022-10-02T17:25:00.125Z,100483.81
2022-10-02T17:28:17.229Z,100482.19
2022-10-02T17:31:25.280Z,100477.81
2022-10-02T17:34:46.104Z,100471.13
2022-10-02T17:37:51.654Z,100471.91
2022-10-02T17:41:02.561Z,100476.19
2022-10-02T17:44:11.588Z,100469.28
2022-10-02T17:47:25.795Z,100477.19
2022-10-02T17:50:30.947Z,100484.41
2022-10-02T17:54:18.301Z,100468.59
2022-10-02T17:57:23.527Z,100479.59
2022-10-02T18:00:30.697Z,100481.88
2022-10-02T18:03:43.879Z,100491.09
2022-10-02T18:07:05.227Z,100487.97
2022-10-02T18:10:20.056Z,100482.50
2022-10-02T18:13:45.021Z,100484.41
2022-10-02T18:16:57.017Z,100483.06
2022-10-02T18:19:59.299Z,100489.22
2022-10-02T18:23:13.048Z,100481.06
2022-10-02T18:26:34.279Z,100491.44
2022-10-02T18:29:36.890Z,100479.28
2022-10-02T18:32:48.523Z,100480.91
2022-10-02T18:36:12.904Z,100479.97
2022-10-02T18:39:23.406Z,100486.38
2022-10-02T18:42:39.255Z,100476.12
2022-10-02T18:45:50.952Z,100486.22
2022-10-02T18:49:12.671Z,100490.69
2022-10-02T18:52:27.946Z,100487.38
2022-10-02T18:55:45.565Z,100475.91
2022-10-02T18:59:06.817Z,100490.06
2022-10-02T19:02:33.872Z,100483.78
2022-10-02T19:05:55.383Z,100477.75
2022-10-02T19:09:04.756Z,100472.94
2022-10-02T19:12:13.979Z,100475.66
2022-10-02T19:15:24.014Z,100477.66
2022-10-02T19:18:27.831Z,100480.25
2022-10-02T19:21:34.182Z,100479.56
2022-10-02T19:24:38.505Z,100481.47
2022-10-02T19:27:43.622Z,100480.72
2022-10-02T19:30:52.354Z,100476.38
2022-10-02T19:34:18.423Z,100475.62
2022-10-02T19:37:22.953Z,100464.16
2022-10-02T19:40:31.633Z,100457.44
2022-10-02T19:43:35.549Z,100450.34
2022-10-02T19:46:41.304Z,100446.16
2022-10-02T19:49:46.632Z,100436.78
2022-10-02T19:52:58.255Z,100436.13
2022-10-02T19:56:03.418Z,100433.53
2022-10-02T19:59:20.098Z,100431.06
2022-10-02T20:02:43.501Z,100426.75
2022-10-02T20:05:48.092Z,100429.50
2022-10-02T20:09:01.128Z,100432.84
2022-10-02T20:12:21.899Z,100428.69
2022-10-02T20:15:48.397Z,100428.28
2022-10-02T20:18:51.703Z,100424.09
2022-10-02T20:21:54.918Z,100419.16
2022-10-02T20:25:06.554Z,100419.59
2022-10-02T20:28:17.235Z,100422.25
2022-10-02T20:31:24.481Z,100412.97
2022-10-02T20:34:31.591Z,100415.78
2022-10-02T20:37:35.013Z,100417.88
2022-10-02T20:40:39.821Z,100411.13
2022-10-02T20:43:55.216Z,100412.66
2022-10-02T20:47:03.284Z,100406.53
2022-10-02T20:50:05.868Z,100394.56
2022-10-02T20:53:23.424Z,100393.03
2022-10-02T20:56:45.538Z,100386.22
2022-10-02T20:59:51.029Z,100387.03
2022-10-02T21:03:08.938Z,100389.87
2022-10-02T21:06:29.999Z,100399.28
2022-10-02T21:09:47.988Z,100403.63
2022-10-02T21:12:55.718Z,100412.09
2022-10-02T21:16:10.830Z,100419.19
2022-10-02T21:19:23.544Z,100413.72
2022-10-02T21:22:58.958Z,100420.16
2022-10-02T21:26:04.218Z,100414.81
2022-10-02T21:29:26.087Z,100412.53
2022-10-02T21:32:40.919Z,100410.97
2022-10-02T21:35:52.067Z,100410.91
2022-10-02T21:39:28.261Z,100413.66
2022-10-02T21:42:51.001Z,100413.94
2022-10-02T21:46:13.944Z,100406.16
2022-10-02T21:49:20.068Z,100414.09
2022-10-02T21:52:41.533Z,100410.63
2022-10-02T21:56:04.324Z,100406.16
2022-10-02T21:59:06.594Z,100404.47
2022-10-02T22:02:38.386Z,100409.41
2022-10-02T22:05:43.865Z,100400.66
2022-10-02T22:08:46.265Z,100409.53
2022-10-02T22:11:57.462Z,100408.75
2022-10-02T22:15:12.014Z,100420.50
2022-10-02T22:18:26.750Z,100424.22
2022-10-02T22:21:58.558Z,100420.81
2022-10-02T22:25:19.998Z,100427.16
2022-10-02T22:28:38.395Z,100429.06
2022-10-02T22:31:53.250Z,100418.53
2022-10-02T22:35:00.121Z,100425.69
2022-10-02T22:38:09.194Z,100425.00
2022-10-02T22:41:24.588Z,100421.31
2022-10-02T22:44:39.395Z,100412.59
2022-10-02T22:47:47.194Z,100409.44
2022-10-02T22:50:52.825Z,100397.81
2022-10-02T22:54:11.610Z,100389.09
2022-10-02T22:57:20.799Z,100386.81
2022-10-02T23:00:26.010Z,100375.56
2022-10-02T23:03:36.545Z,100379.94
2022-10-02T23:06:41.846Z,100379.25
2022-10-02T23:09:49.110Z,100383.81
2022-10-02T23:12:58.161Z,100380.22
2022-10-02T23:16:03.729Z,100378.53
2022-10-02T23:19:06.003Z,100369.91
2022-10-02T23:22:23.438Z,100369.19
2022-10-02T23:25:46.603Z,100373.81
2022-10-02T23:28:54.696Z,100368.34
2022-10-02T23:32:00.835Z,100374.41
2022-10-02T23:35:15.551Z,100372.78
2022-10-02T23:38:23.777Z,100373.91
2022-10-02T23:41:46.970Z,100379.19
2022-10-02T23:44:55.799Z,100385.41
2022-10-02T23:48:05.900Z,100386.50
2022-10-02T23:51:32.945Z,100390.00
2022-10-02T23:54:35.597Z,100393.75
2022-10-02T23:57:56.392Z,100401.62
